»·PEaware :: N1AS KBFL-KSBA

N1AS :: KBFL-KSBA

FLIGHT INFORMATION

Flight Status: Arrived
Operator: Privately registered:
United States
More flights under this callsign
Pilot: Adam S. (8156)
Aircraft: SOCATA TBM-900
(TBM9)
More flights by this aircraft type
Origin: KBFL Meadows
United States
Destination: KSBA Santa Barbara Mun
United States
More flights between these airports :: More routes between these airports
Route: +EHF STIGR V183 RZS
File this flight plan on PilotEdge
Remarks:
Altitude:
(Current/Filed)
16,000ft
Speed:
(Current/Filed)
220kts
Departed: 05-Apr-20 07:35 PM
Arrived: 05-Apr-20 08:10 PM
Distance/Time
Traveled:
72nm/0:35
Distance/Time
To Go:
Arrived

Flight Plot

Page will automatically refresh every two minutes.

Flight plan parsing failed; only flown route is shown


Map Options




Map Legend


Flown Route
Filed Route
Departure Airport
Arrival Airport
Navaid (VOR, NDB)
Fix

Horizontal Profiles

Position Reports

Time Latitude Longitude Heading Altitude Ground
Speed
05-Apr-20 19:21 35.426203 -119.042681 179 496ft 0kts
05-Apr-20 19:22 35.426203 -119.042681 179 496ft 0kts
05-Apr-20 19:24 35.426203 -119.042681 179 496ft 0kts
05-Apr-20 19:25 35.426203 -119.042681 179 496ft 0kts
05-Apr-20 19:26 35.426203 -119.042681 179 496ft 0kts
05-Apr-20 19:27 35.426203 -119.042681 179 496ft 0kts
05-Apr-20 19:28 35.426203 -119.042681 179 496ft 0kts
05-Apr-20 19:29 35.426203 -119.042681 179 496ft 0kts
05-Apr-20 19:30 35.426203 -119.042681 179 496ft 0kts
05-Apr-20 19:31 35.426042 -119.042693 187 496ft 9kts
05-Apr-20 19:32 35.424544 -119.043296 11 496ft 13kts
05-Apr-20 19:33 35.425543 -119.044765 255 496ft 0kts
05-Apr-20 19:34 35.425543 -119.044769 255 496ft 1kts
05-Apr-20 19:35 35.429460 -119.050878 316 496ft 100kts
05-Apr-20 19:36 35.454663 -119.082441 316 2477ft 133kts
05-Apr-20 19:37 35.490240 -119.120950 301 3007ft 201kts
05-Apr-20 19:38 35.463257 -119.156361 195 5015ft 143kts
05-Apr-20 19:39 35.424761 -119.169930 194 7529ft 143kts
05-Apr-20 19:40 35.384568 -119.183519 195 9876ft 146kts
05-Apr-20 19:40 35.350997 -119.194765 197 11975ft 145kts
05-Apr-20 19:42 35.301538 -119.225232 208 13028ft 202kts
05-Apr-20 19:43 35.246678 -119.263400 209 13009ft 224kts
05-Apr-20 19:43 35.198648 -119.296803 209 13009ft 228kts
05-Apr-20 19:45 35.130772 -119.343920 209 13021ft 228kts
05-Apr-20 19:46 35.072589 -119.384248 209 13022ft 228kts
05-Apr-20 19:46 35.024240 -119.417690 209 13220ft 219kts
05-Apr-20 19:48 34.966151 -119.457807 209 14892ft 187kts
05-Apr-20 19:48 34.928714 -119.483663 209 15963ft 182kts
05-Apr-20 19:49 34.877623 -119.518831 209 15991ft 220kts
05-Apr-20 19:50 34.821543 -119.557426 209 15988ft 228kts
05-Apr-20 19:51 34.772228 -119.605341 222 15988ft 227kts
05-Apr-20 19:52 34.727092 -119.659911 222 15995ft 226kts
05-Apr-20 19:53 34.681175 -119.714880 222 16000ft 226kts
05-Apr-20 19:54 34.635388 -119.769431 222 15161ft 219kts
05-Apr-20 19:55 34.590000 -119.823354 222 13626ft 224kts
05-Apr-20 19:56 34.543898 -119.878005 222 12098ft 228kts
05-Apr-20 19:57 34.518620 -119.949816 252 10533ft 232kts
05-Apr-20 19:58 34.506088 -120.025669 252 8998ft 218kts
05-Apr-20 19:59 34.495286 -120.095041 252 7461ft 202kts
05-Apr-20 20:00 34.482060 -120.158098 212 5982ft 174kts
05-Apr-20 20:01 34.449451 -120.128415 149 5033ft 178kts
05-Apr-20 20:02 34.423584 -120.081902 83 4087ft 181kts
05-Apr-20 20:03 34.433497 -120.033266 108 3467ft 124kts
05-Apr-20 20:04 34.425521 -119.995558 107 1666ft 109kts
05-Apr-20 20:05 34.426288 -119.961280 89 1622ft 81kts
05-Apr-20 20:06 34.426325 -119.927810 93 1144ft 112kts
05-Apr-20 20:07 34.427291 -119.891545 94 679ft 103kts
05-Apr-20 20:08 34.427587 -119.857622 96 109ft 78kts
05-Apr-20 20:09 34.427779 -119.847032 63 15ft 8kts
05-Apr-20 20:10 34.428463 -119.845776 57 15ft 0kts
05-Apr-20 20:11 34.430211 -119.843138 239 15ft 0kts
05-Apr-20 20:12 34.430211 -119.843138 239 15ft 0kts
05-Apr-20 20:13 34.430211 -119.843137 239 15ft 0kts

Navigation Log

Ident Type
Flight plan parsing failed, navigation log unavailable